RJSY(METAR)
06/26 08:00
METAR RJSY 252300Z 30003KT 250V350 9999 FEW030 22/17 Q1015 RMK
1CU030 A2999=
戻る
トップページへ戻る
IMOC Co,.Ltd.